createdAt,value
2019-03-12T00:00:47.811Z,1.40
2019-03-12T00:03:13.960Z,1.40
2019-03-12T00:05:40.122Z,1.40
2019-03-12T00:08:06.171Z,1.30
2019-03-12T00:10:32.305Z,1.30
2019-03-12T00:12:58.424Z,1.30
2019-03-12T00:15:24.495Z,1.30
2019-03-12T00:17:50.659Z,1.30
2019-03-12T00:20:16.712Z,1.30
2019-03-12T00:22:42.796Z,1.30
2019-03-12T00:25:08.944Z,1.30
2019-03-12T00:27:35.022Z,1.40
2019-03-12T00:30:01.084Z,1.30
2019-03-12T00:32:27.131Z,1.40
2019-03-12T00:34:53.189Z,1.30
2019-03-12T00:37:19.239Z,1.30
2019-03-12T00:39:45.328Z,1.30
2019-03-12T00:42:11.386Z,1.30
2019-03-12T00:44:37.444Z,1.30
2019-03-12T00:47:03.492Z,1.30
2019-03-12T00:49:29.720Z,1.20
2019-03-12T00:51:55.784Z,1.20
2019-03-12T00:54:21.887Z,1.20
2019-03-12T00:56:47.943Z,1.20
2019-03-12T00:59:14.004Z,1.20
2019-03-12T01:01:40.064Z,1.20
2019-03-12T01:04:06.127Z,1.10
2019-03-12T01:06:32.188Z,1.10
2019-03-12T01:08:58.315Z,1.10
2019-03-12T01:11:24.359Z,1.10
2019-03-12T01:13:50.419Z,1.20
2019-03-12T01:16:16.476Z,1.30
2019-03-12T01:18:42.537Z,1.30
2019-03-12T01:21:08.687Z,1.30
2019-03-12T01:23:34.775Z,1.40
2019-03-12T01:26:00.840Z,1.40
2019-03-12T01:28:26.893Z,1.40
2019-03-12T01:30:53.283Z,1.40
2019-03-12T01:33:19.363Z,1.40
2019-03-12T01:35:45.411Z,1.40
2019-03-12T01:38:11.511Z,1.50
2019-03-12T01:40:37.569Z,1.50
2019-03-12T01:43:03.632Z,1.60
2019-03-12T01:45:29.708Z,1.70
2019-03-12T01:47:55.868Z,1.80
2019-03-12T01:50:21.946Z,1.80
2019-03-12T01:52:47.995Z,1.80
2019-03-12T01:55:15.362Z,1.80
2019-03-12T01:57:41.653Z,1.80
2019-03-12T02:00:15.406Z,1.80
2019-03-12T02:02:41.490Z,1.80
2019-03-12T02:05:07.829Z,1.80
2019-03-12T02:07:33.887Z,1.90
2019-03-12T02:09:59.974Z,2.00
2019-03-12T02:12:26.027Z,2.00
2019-03-12T02:14:52.160Z,2.10
2019-03-12T02:17:18.220Z,2.10
2019-03-12T02:19:44.268Z,2.10
2019-03-12T02:22:10.498Z,2.10
2019-03-12T02:24:36.572Z,2.00
2019-03-12T02:27:03.025Z,2.00
2019-03-12T02:29:29.076Z,1.90
2019-03-12T02:31:55.138Z,1.90
2019-03-12T02:34:21.334Z,1.90
2019-03-12T02:36:47.512Z,1.90
2019-03-12T02:39:13.982Z,2.00
2019-03-12T02:41:40.143Z,2.00
2019-03-12T02:44:06.307Z,2.00
2019-03-12T02:46:32.351Z,2.10
2019-03-12T02:48:58.408Z,2.10
2019-03-12T02:51:24.467Z,2.10
2019-03-12T02:53:50.714Z,2.10
2019-03-12T02:56:16.789Z,2.00
2019-03-12T02:58:42.932Z,2.00
2019-03-12T03:01:08.992Z,2.00
2019-03-12T03:03:35.050Z,1.90
2019-03-12T03:06:03.225Z,1.90
2019-03-12T03:08:31.820Z,1.90
2019-03-12T03:10:57.863Z,1.90
2019-03-12T03:13:23.935Z,1.90
2019-03-12T03:15:49.998Z,2.00
2019-03-12T03:18:16.052Z,2.10
2019-03-12T03:20:42.122Z,2.20
2019-03-12T03:23:08.264Z,2.30
2019-03-12T03:25:34.729Z,2.40
2019-03-12T03:28:00.875Z,2.40
2019-03-12T03:30:27.059Z,2.40
2019-03-12T03:32:53.505Z,2.50
2019-03-12T03:35:19.675Z,2.50
2019-03-12T03:37:46.025Z,2.50
2019-03-12T03:40:15.179Z,2.50
2019-03-12T03:42:41.236Z,2.40
2019-03-12T03:45:08.330Z,2.40
2019-03-12T03:47:34.375Z,2.40
2019-03-12T03:50:00.493Z,2.30
2019-03-12T03:52:26.838Z,2.30
2019-03-12T03:54:53.005Z,2.30
2019-03-12T03:57:19.054Z,2.30
2019-03-12T03:59:45.513Z,2.20
2019-03-12T04:02:11.577Z,2.20
2019-03-12T04:04:37.741Z,2.20
2019-03-12T04:07:03.887Z,2.20
2019-03-12T04:09:30.014Z,2.30
2019-03-12T04:11:56.077Z,2.30
2019-03-12T04:14:22.148Z,2.30
2019-03-12T04:16:48.227Z,2.40
2019-03-12T04:19:14.302Z,2.30
2019-03-12T04:21:40.360Z,2.30
2019-03-12T04:24:06.419Z,2.30
2019-03-12T04:26:32.500Z,2.30
2019-03-12T04:28:58.653Z,2.30
2019-03-12T04:31:24.711Z,2.30
2019-03-12T04:33:53.723Z,2.30
2019-03-12T04:36:19.770Z,2.30
2019-03-12T04:38:45.838Z,2.30
2019-03-12T04:41:11.879Z,2.40
2019-03-12T04:43:37.939Z,2.40
2019-03-12T04:46:03.997Z,2.40
2019-03-12T04:48:30.048Z,2.40
2019-03-12T04:50:56.108Z,2.40
2019-03-12T04:53:22.234Z,2.40
2019-03-12T04:55:48.293Z,2.50
2019-03-12T04:58:14.343Z,2.50
2019-03-12T05:00:40.452Z,2.60
2019-03-12T05:03:06.621Z,2.50
2019-03-12T05:05:32.679Z,2.60
2019-03-12T05:07:58.747Z,2.60
2019-03-12T05:10:24.802Z,2.50
2019-03-12T05:12:50.856Z,2.60
2019-03-12T05:15:17.860Z,2.60
2019-03-12T05:17:44.344Z,2.50
2019-03-12T05:20:12.096Z,2.50
2019-03-12T05:22:38.176Z,2.50
2019-03-12T05:25:09.667Z,2.40
2019-03-12T05:27:35.731Z,2.40
2019-03-12T05:30:05.387Z,2.30
2019-03-12T05:32:31.443Z,2.30
2019-03-12T05:34:57.511Z,2.30
2019-03-12T05:37:23.663Z,2.30
2019-03-12T05:39:49.766Z,2.20
2019-03-12T05:42:15.938Z,2.20
2019-03-12T05:44:42.088Z,2.20
2019-03-12T05:47:08.446Z,2.20
2019-03-12T05:49:34.707Z,2.20
2019-03-12T05:52:00.779Z,2.20
2019-03-12T05:54:26.844Z,2.20
2019-03-12T05:56:52.896Z,2.20
2019-03-12T05:59:18.947Z,2.30
2019-03-12T06:01:46.754Z,2.30
2019-03-12T06:04:13.022Z,2.40
2019-03-12T06:06:39.072Z,2.50
2019-03-12T06:09:05.487Z,2.60
2019-03-12T06:11:31.643Z,2.70
2019-03-12T06:13:57.703Z,2.80
2019-03-12T06:16:23.862Z,3.00
2019-03-12T06:18:50.260Z,3.10
2019-03-12T06:21:16.312Z,3.20
2019-03-12T06:23:42.387Z,3.30
2019-03-12T06:26:08.435Z,3.30
2019-03-12T06:28:34.556Z,3.40
2019-03-12T06:31:05.070Z,3.50
2019-03-12T06:33:48.117Z,3.60
2019-03-12T06:36:32.748Z,3.60
2019-03-12T06:39:12.754Z,3.70
2019-03-12T06:41:43.522Z,3.70
2019-03-12T06:44:11.547Z,3.80
2019-03-12T06:46:39.584Z,3.80
2019-03-12T06:49:07.556Z,3.80
2019-03-12T06:51:44.492Z,3.80
2019-03-12T06:54:12.439Z,3.80
2019-03-12T06:56:58.375Z,3.90
2019-03-12T06:59:29.464Z,3.90
2019-03-12T07:02:09.438Z,4.00
2019-03-12T07:04:37.595Z,4.00
2019-03-12T07:07:22.410Z,4.10
2019-03-12T07:09:56.219Z,4.20
2019-03-12T07:12:24.184Z,4.20
2019-03-12T07:15:10.479Z,4.30
2019-03-12T07:17:38.452Z,4.40
2019-03-12T07:20:13.373Z,4.40
2019-03-12T07:22:44.432Z,4.50
2019-03-12T07:25:24.399Z,4.60
2019-03-12T07:27:55.144Z,4.80
2019-03-12T07:30:25.679Z,4.90
2019-03-12T07:32:56.579Z,4.90
2019-03-12T07:35:24.656Z,5.00
2019-03-12T07:37:55.247Z,5.10
2019-03-12T07:40:23.200Z,5.10
2019-03-12T07:42:51.182Z,5.20
2019-03-12T07:45:22.044Z,5.50
2019-03-12T07:47:49.995Z,5.70
2019-03-12T07:50:36.187Z,5.90
2019-03-12T07:53:20.772Z,6.10
2019-03-12T07:55:57.774Z,6.20
2019-03-12T07:58:40.787Z,6.30
2019-03-12T08:01:25.324Z,6.50
2019-03-12T08:04:02.112Z,6.50
2019-03-12T08:06:32.763Z,6.50
2019-03-12T08:09:24.695Z,6.60
2019-03-12T08:11:52.691Z,6.60
2019-03-12T08:14:27.112Z,6.60
2019-03-12T08:17:07.235Z,6.60
2019-03-12T08:19:51.735Z,6.80
2019-03-12T08:22:19.755Z,6.90
2019-03-12T08:24:53.350Z,7.10
2019-03-12T08:27:21.303Z,7.20
2019-03-12T08:29:49.461Z,7.40
2019-03-12T08:32:23.975Z,7.70
2019-03-12T08:34:57.877Z,7.90
2019-03-12T08:37:25.898Z,8.20
2019-03-12T08:39:59.717Z,8.30
2019-03-12T08:42:27.693Z,8.50
2019-03-12T08:45:11.211Z,8.70
2019-03-12T08:47:40.757Z,8.90
2019-03-12T08:50:16.452Z,9.20
2019-03-12T08:52:50.267Z,9.40
2019-03-12T08:55:18.252Z,9.60
2019-03-12T08:57:49.173Z,9.70
2019-03-12T09:00:17.339Z,9.80
2019-03-12T09:02:51.131Z,9.80
2019-03-12T09:05:31.039Z,9.80
2019-03-12T09:08:15.503Z,9.90
2019-03-12T09:10:49.320Z,9.90
2019-03-12T09:13:17.271Z,9.90
2019-03-12T09:15:45.338Z,9.80
2019-03-12T09:18:13.301Z,9.90
2019-03-12T09:20:41.456Z,10.00
2019-03-12T09:23:21.539Z,10.10
2019-03-12T09:25:52.291Z,10.20
2019-03-12T09:28:26.348Z,10.30
2019-03-12T09:31:09.101Z,10.30
2019-03-12T09:33:48.928Z,10.30
2019-03-12T09:36:19.419Z,10.30
2019-03-12T09:39:03.876Z,10.30
2019-03-12T09:41:41.019Z,10.30
2019-03-12T09:44:15.158Z,10.30
2019-03-12T09:46:55.152Z,10.30
2019-03-12T09:49:27.606Z,10.10
2019-03-12T09:51:55.615Z,10.20
2019-03-12T09:54:32.191Z,10.20
2019-03-12T09:57:00.190Z,10.40
2019-03-12T09:59:37.232Z,10.50
2019-03-12T10:02:07.847Z,10.50
2019-03-12T10:04:38.712Z,10.50
2019-03-12T10:07:12.624Z,10.40
2019-03-12T10:09:40.691Z,10.40
2019-03-12T10:12:20.460Z,10.50
2019-03-12T10:15:00.539Z,10.80
2019-03-12T10:17:34.594Z,11.10
2019-03-12T10:20:17.557Z,11.20
2019-03-12T10:22:45.523Z,11.30
2019-03-12T10:25:25.937Z,11.30
2019-03-12T10:28:00.135Z,10.90
2019-03-12T10:30:37.700Z,11.20
2019-03-12T10:33:05.818Z,11.00
2019-03-12T10:35:33.775Z,10.90
2019-03-12T10:38:31.209Z,10.80
2019-03-12T10:40:59.229Z,10.70
2019-03-12T10:43:27.179Z,10.70
2019-03-12T10:45:55.131Z,10.80
2019-03-12T10:48:21.236Z,10.80
2019-03-12T10:50:47.280Z,10.80
2019-03-12T10:53:13.366Z,10.80
2019-03-12T10:55:39.455Z,10.90
2019-03-12T10:58:05.508Z,10.90
2019-03-12T11:00:31.573Z,11.10
2019-03-12T11:02:57.635Z,11.20
2019-03-12T11:05:23.701Z,11.30
2019-03-12T11:07:49.775Z,11.20
2019-03-12T11:10:18.029Z,11.10
2019-03-12T11:12:44.152Z,10.80
2019-03-12T11:15:11.148Z,10.50
2019-03-12T11:17:48.770Z,10.20
2019-03-12T11:20:16.839Z,9.90
2019-03-12T11:22:43.374Z,9.60
2019-03-12T11:25:09.739Z,9.40
2019-03-12T11:27:35.800Z,9.20
2019-03-12T11:30:07.415Z,9.00
2019-03-12T11:32:33.496Z,8.90
2019-03-12T11:34:59.548Z,8.80
2019-03-12T11:37:25.606Z,8.70
2019-03-12T11:39:51.825Z,8.60
2019-03-12T11:42:17.977Z,8.60
2019-03-12T11:44:44.160Z,8.70
2019-03-12T11:47:10.321Z,8.70
2019-03-12T11:49:36.402Z,8.70
2019-03-12T11:52:02.547Z,8.70
2019-03-12T11:54:28.716Z,8.80
2019-03-12T11:56:54.928Z,9.00
2019-03-12T11:59:20.992Z,9.20
2019-03-12T12:01:47.158Z,9.30
2019-03-12T12:04:13.202Z,9.40
2019-03-12T12:06:42.443Z,9.40
2019-03-12T12:09:10.412Z,9.40
2019-03-12T12:11:36.548Z,9.50
2019-03-12T12:14:02.910Z,9.60
2019-03-12T12:16:29.064Z,9.70
2019-03-12T12:18:55.148Z,9.80
2019-03-12T12:21:21.197Z,10.00
2019-03-12T12:23:47.283Z,10.00
2019-03-12T12:26:13.336Z,10.00
2019-03-12T12:28:39.391Z,9.90
2019-03-12T12:31:05.449Z,9.90
2019-03-12T12:33:31.618Z,9.70
2019-03-12T12:35:57.758Z,9.70
2019-03-12T12:38:23.855Z,9.70
2019-03-12T12:40:49.903Z,9.60
2019-03-12T12:43:15.985Z,9.60
2019-03-12T12:45:42.027Z,9.60
2019-03-12T12:48:08.179Z,9.50
2019-03-12T12:50:34.263Z,9.50
2019-03-12T12:53:00.338Z,9.50
2019-03-12T12:55:26.383Z,9.50
2019-03-12T12:57:52.439Z,9.50
2019-03-12T13:00:19.896Z,9.50
2019-03-12T13:02:45.956Z,9.40
2019-03-12T13:05:13.207Z,9.30
2019-03-12T13:07:39.263Z,9.20
2019-03-12T13:10:12.083Z,9.10
2019-03-12T13:12:38.156Z,9.00
2019-03-12T13:15:07.420Z,9.00
2019-03-12T13:17:33.483Z,8.90
2019-03-12T13:19:59.539Z,8.80
2019-03-12T13:22:25.745Z,8.80
2019-03-12T13:24:51.876Z,8.90
2019-03-12T13:27:17.925Z,8.90
2019-03-12T13:29:44.015Z,8.90
2019-03-12T13:32:13.710Z,9.00
2019-03-12T13:34:38.092Z,9.00
2019-03-12T13:37:04.147Z,8.90
2019-03-12T13:39:30.221Z,9.00
2019-03-12T13:41:56.471Z,9.00
2019-03-12T13:44:22.516Z,9.00
2019-03-12T13:46:48.600Z,9.00
2019-03-12T13:49:14.744Z,9.00
2019-03-12T13:51:40.827Z,9.10
2019-03-12T13:54:09.585Z,9.10
2019-03-12T13:56:35.093Z,9.10
2019-03-12T13:59:01.208Z,9.10
2019-03-12T14:01:27.282Z,9.10
2019-03-12T14:03:53.336Z,9.10
2019-03-12T14:06:19.443Z,9.20
2019-03-12T14:08:45.499Z,9.30
2019-03-12T14:11:11.583Z,9.30
2019-03-12T14:13:37.787Z,9.40
2019-03-12T14:16:03.840Z,9.40
2019-03-12T14:18:29.919Z,9.30
2019-03-12T14:20:59.725Z,9.30
2019-03-12T14:23:37.936Z,9.20
2019-03-12T14:26:04.195Z,9.20
2019-03-12T14:28:30.347Z,9.10
2019-03-12T14:30:56.535Z,9.00
2019-03-12T14:33:23.000Z,9.00
2019-03-12T14:35:51.889Z,8.90
2019-03-12T14:38:17.779Z,8.90
2019-03-12T14:40:44.079Z,9.00
2019-03-12T14:43:10.255Z,8.90
2019-03-12T14:45:39.903Z,8.90
2019-03-12T14:48:08.594Z,8.90
2019-03-12T14:50:34.691Z,9.00
2019-03-12T14:53:07.306Z,9.10
2019-03-12T14:55:32.614Z,9.20
2019-03-12T14:57:58.935Z,9.10
2019-03-12T15:00:25.084Z,9.20
2019-03-12T15:02:52.066Z,9.10
2019-03-12T15:05:18.143Z,9.10
2019-03-12T15:07:44.211Z,9.10
2019-03-12T15:10:10.857Z,9.10
2019-03-12T15:12:36.915Z,9.10
2019-03-12T15:15:06.183Z,9.10
2019-03-12T15:17:32.335Z,9.00
2019-03-12T15:19:58.391Z,9.10
2019-03-12T15:22:26.456Z,9.00
2019-03-12T15:24:52.513Z,9.00
2019-03-12T15:27:18.581Z,8.90
2019-03-12T15:29:44.660Z,8.90
2019-03-12T15:32:10.717Z,8.80
2019-03-12T15:34:36.828Z,8.80
2019-03-12T15:37:02.986Z,8.70
2019-03-12T15:39:29.027Z,8.60
2019-03-12T15:41:55.095Z,8.60
2019-03-12T15:44:21.187Z,8.50
2019-03-12T15:46:47.254Z,8.50
2019-03-12T15:49:13.299Z,8.50
2019-03-12T15:51:39.362Z,8.50
2019-03-12T15:54:05.442Z,8.50
2019-03-12T15:56:31.531Z,8.40
2019-03-12T15:58:57.672Z,8.40
2019-03-12T16:01:23.923Z,8.40
2019-03-12T16:03:49.980Z,8.30
2019-03-12T16:06:16.139Z,8.30
2019-03-12T16:08:42.227Z,8.40
2019-03-12T16:11:08.371Z,8.40
2019-03-12T16:13:34.431Z,8.40
2019-03-12T16:16:00.519Z,8.40
2019-03-12T16:18:26.701Z,8.40
2019-03-12T16:20:52.756Z,8.40
2019-03-12T16:23:18.808Z,8.40
2019-03-12T16:25:44.855Z,8.40
2019-03-12T16:28:10.928Z,8.30
2019-03-12T16:30:36.984Z,8.30
2019-03-12T16:33:03.065Z,8.30
2019-03-12T16:35:29.215Z,8.30
2019-03-12T16:37:55.263Z,8.20
2019-03-12T16:40:21.356Z,8.20
2019-03-12T16:42:47.544Z,8.20
2019-03-12T16:45:15.509Z,8.20
2019-03-12T16:47:41.659Z,8.10
2019-03-12T16:50:15.135Z,8.10
2019-03-12T16:52:41.188Z,8.10
2019-03-12T16:55:11.749Z,8.10
2019-03-12T16:57:37.996Z,8.10
2019-03-12T17:00:10.095Z,8.10
2019-03-12T17:02:36.217Z,8.00
2019-03-12T17:05:04.057Z,8.00
2019-03-12T17:07:30.226Z,8.00
2019-03-12T17:09:56.271Z,8.00
2019-03-12T17:12:22.396Z,8.00
2019-03-12T17:14:48.571Z,8.00
2019-03-12T17:17:16.388Z,8.00
2019-03-12T17:20:03.472Z,8.00
2019-03-12T17:22:29.524Z,7.90
2019-03-12T17:24:56.166Z,7.90
2019-03-12T17:27:22.435Z,7.90
2019-03-12T17:29:48.499Z,7.90
2019-03-12T17:32:14.602Z,7.90
2019-03-12T17:34:40.692Z,7.90
2019-03-12T17:37:06.752Z,7.90
2019-03-12T17:39:32.799Z,7.90
2019-03-12T17:41:58.863Z,7.90
2019-03-12T17:44:24.924Z,7.90
2019-03-12T17:46:51.245Z,7.90
2019-03-12T17:49:17.343Z,7.80
2019-03-12T17:51:43.448Z,7.80
2019-03-12T17:54:09.556Z,7.80
2019-03-12T17:56:35.627Z,7.80
2019-03-12T17:59:01.760Z,7.70
2019-03-12T18:01:30.048Z,7.70
2019-03-12T18:03:55.826Z,7.70
2019-03-12T18:06:21.972Z,7.60
2019-03-12T18:08:48.127Z,7.60
2019-03-12T18:11:14.600Z,7.60
2019-03-12T18:13:40.671Z,7.60
2019-03-12T18:16:06.720Z,7.60
2019-03-12T18:18:32.837Z,7.60
2019-03-12T18:20:58.894Z,7.50
2019-03-12T18:23:24.944Z,7.50
2019-03-12T18:25:51.027Z,7.60
2019-03-12T18:28:17.084Z,7.60
2019-03-12T18:30:43.180Z,7.60
2019-03-12T18:33:09.248Z,7.60
2019-03-12T18:35:35.340Z,7.60
2019-03-12T18:38:01.410Z,7.60
2019-03-12T18:40:28.207Z,7.60
2019-03-12T18:42:54.472Z,7.60
2019-03-12T18:45:23.611Z,7.60
2019-03-12T18:47:49.757Z,7.60
2019-03-12T18:50:16.831Z,7.60
2019-03-12T18:52:42.955Z,7.60
2019-03-12T18:55:29.888Z,7.60
2019-03-12T18:57:56.026Z,7.50
2019-03-12T19:00:22.168Z,7.50
2019-03-12T19:02:48.220Z,7.50
2019-03-12T19:05:14.311Z,7.50
2019-03-12T19:07:40.420Z,7.50
2019-03-12T19:10:13.170Z,7.50
2019-03-12T19:12:39.455Z,7.50
2019-03-12T19:15:09.868Z,7.50
2019-03-12T19:17:36.031Z,7.50
2019-03-12T19:20:05.207Z,7.50
2019-03-12T19:22:31.310Z,7.50
2019-03-12T19:24:57.407Z,7.50
2019-03-12T19:27:23.472Z,7.50
2019-03-12T19:29:49.639Z,7.50
2019-03-12T19:32:17.607Z,7.40
2019-03-12T19:34:43.728Z,7.40
2019-03-12T19:37:09.795Z,7.40
2019-03-12T19:39:35.975Z,7.40
2019-03-12T19:42:02.028Z,7.40
2019-03-12T19:44:28.086Z,7.50
2019-03-12T19:46:54.137Z,7.50
2019-03-12T19:49:33.236Z,7.40
2019-03-12T19:51:59.283Z,7.50
2019-03-12T19:54:25.375Z,7.50
2019-03-12T19:56:51.536Z,7.50
2019-03-12T19:59:17.882Z,7.50
2019-03-12T20:01:44.152Z,7.50
2019-03-12T20:04:10.214Z,7.50
2019-03-12T20:06:36.333Z,7.50
2019-03-12T20:09:05.950Z,7.50
2019-03-12T20:11:52.706Z,7.50
2019-03-12T20:14:52.992Z,7.50
2019-03-12T20:17:25.381Z,7.50
2019-03-12T20:20:12.910Z,7.50
2019-03-12T20:23:09.088Z,7.40
2019-03-12T20:25:56.049Z,7.40
2019-03-12T20:28:32.248Z,7.50
2019-03-12T20:31:08.291Z,7.50
2019-03-12T20:33:50.584Z,7.50
2019-03-12T20:36:31.980Z,7.60
2019-03-12T20:39:30.896Z,7.60
2019-03-12T20:42:36.219Z,7.60
2019-03-12T20:45:40.295Z,7.70
2019-03-12T20:48:22.535Z,7.70
2019-03-12T20:51:26.223Z,7.70
2019-03-12T20:54:11.115Z,7.70
2019-03-12T20:56:57.948Z,7.70
2019-03-12T20:59:50.139Z,7.70
2019-03-12T21:02:53.423Z,7.70
2019-03-12T21:05:35.164Z,7.60
2019-03-12T21:08:37.439Z,7.60
2019-03-12T21:11:42.939Z,7.60
2019-03-12T21:14:21.923Z,7.60
2019-03-12T21:17:07.124Z,7.60
2019-03-12T21:20:10.715Z,7.70
2019-03-12T21:23:03.119Z,7.60
2019-03-12T21:25:33.024Z,7.60
2019-03-12T21:28:11.669Z,7.60
2019-03-12T21:30:38.207Z,7.60
2019-03-12T21:33:14.759Z,7.60
2019-03-12T21:35:32.263Z,7.50
2019-03-12T21:37:58.411Z,7.50
2019-03-12T21:40:24.764Z,7.50
2019-03-12T21:42:50.840Z,7.50
2019-03-12T21:45:16.936Z,7.50
2019-03-12T21:47:43.131Z,7.50
2019-03-12T21:50:09.575Z,7.50
2019-03-12T21:52:35.652Z,7.50
2019-03-12T21:55:04.311Z,7.60
2019-03-12T21:57:30.475Z,7.60
2019-03-12T21:59:56.551Z,7.70
2019-03-12T22:02:22.627Z,7.70
2019-03-12T22:04:48.680Z,7.70
2019-03-12T22:07:14.733Z,7.70
2019-03-12T22:09:40.886Z,7.80
2019-03-12T22:12:07.177Z,7.80
2019-03-12T22:14:33.419Z,7.80
2019-03-12T22:17:00.955Z,7.80
2019-03-12T22:19:27.136Z,7.80
2019-03-12T22:21:55.083Z,7.70
2019-03-12T22:24:21.168Z,7.70
2019-03-12T22:26:47.251Z,7.70
2019-03-12T22:29:13.307Z,7.60
2019-03-12T22:31:39.357Z,7.60
2019-03-12T22:34:05.425Z,7.50
2019-03-12T22:36:31.487Z,7.50
2019-03-12T22:38:57.640Z,7.50
2019-03-12T22:41:23.965Z,7.50
2019-03-12T22:43:50.117Z,7.40
2019-03-12T22:46:16.167Z,7.40
2019-03-12T22:48:42.279Z,7.40
2019-03-12T22:51:08.339Z,7.40
2019-03-12T22:53:34.430Z,7.30
2019-03-12T22:56:00.795Z,7.40
2019-03-12T22:58:26.951Z,7.30
2019-03-12T23:00:54.404Z,7.30
2019-03-12T23:03:20.459Z,7.20
2019-03-12T23:05:46.512Z,7.20
2019-03-12T23:08:12.698Z,7.10
2019-03-12T23:10:38.743Z,7.10
2019-03-12T23:13:04.996Z,7.10
2019-03-12T23:15:31.183Z,7.00
2019-03-12T23:17:57.357Z,7.00
2019-03-12T23:20:23.522Z,7.00
2019-03-12T23:22:52.126Z,7.00
2019-03-12T23:25:17.700Z,7.00
2019-03-12T23:27:43.748Z,7.00
2019-03-12T23:30:14.624Z,7.00
2019-03-12T23:32:40.709Z,7.00
2019-03-12T23:35:07.864Z,7.10
2019-03-12T23:37:34.003Z,7.10
2019-03-12T23:40:00.399Z,7.50
2019-03-12T23:42:26.663Z,7.20
2019-03-12T23:44:52.819Z,7.20
2019-03-12T23:47:18.984Z,7.20
2019-03-12T23:49:45.062Z,7.20
2019-03-12T23:52:11.107Z,7.30
2019-03-12T23:54:37.175Z,7.30
2019-03-12T23:57:03.721Z,7.30
2019-03-12T23:59:29.860Z,7.30
